Tiempo atmosférico en la estación meteorológica de Puebla De Don Rodrigo, Ciudad Real (485 m.)



Fecha
DESCASC
Temp. máxima en grados centígrados (hora)
DESCASC
Temp. mínima en grados centígrados (hora)
DESCASC
Temp. media en grados centígrados
DESCASC
Racha de viento máxima en m/sg (hora)
DESCASC
Velocidad máxima media en intervalos de 10 minutos(hora)
DESCASC
Precipitaciones diarias en mm
DESCASC
Precipitaciones de 00:00 a 06:00 en mm
DESCASC
Precipitaciones de 06:00 a 12:00 en mm
DESCASC
Precipitaciones de 12:00 a 18:00 en mm
DESCASC
Precipitaciones de 18:00 a 24:00 en mm
DESCASC
14-12-2019 12.3 (13:40) 9.7 (08:30) 11 6.94 (00:20) 2.78 (01:20) 0 0 0 0 0
13-12-2019 16.5 (14:50) 10.3 (00:10) 13.4 11.39 (08:30) 5 (03:20) 0.2 0.2 0 0 0
12-12-2019 10.7 (23:50) 0.1 (06:40) 5.4 11.67 (18:00) 4.72 (18:10) 0.1 0 0 0 0.1
11-12-2019 10.3 (17:10) 0.8 (00:00) 5.6 5.28 (14:40) 2.22 (16:40) 0 0 0 0 0
10-12-2019 13.9 (15:40) 3.4 (00:00) 8.6 6.94 (13:20) 3.61 (06:20) 0 0 0 0 0
09-12-2019 -- (--) -- (--) -- -- (--) -- (--) -- 0.1 0 -- 0
08-12-2019 10.2 (17:00) 3.1 (00:00) 6.6 3.61 (20:10) 1.67 (06:30) 0.4 0 0.1 0 0.3
07-12-2019 11.2 (16:10) 2.6 (00:00) 6.9 6.67 (23:40) 2.5 (11:50) 0 0 0 0 0
06-12-2019 15.5 (14:30) 3.8 (00:00) 9.6 10.28 (13:30) 3.61 (15:40) 0 0 0 0 0
05-12-2019 13.1 (15:40) 6.4 (00:00) 9.8 10.56 (15:40) 6.67 (14:30) 0 0 0 0 0
04-12-2019 11.9 (14:30) 3.1 (00:00) 7.5 5 (00:10) 2.5 (00:10) 0.8 0 0 0.7 0.1
03-12-2019 11.2 (12:30) 7.3 (00:00) 9.3 10.28 (14:00) 6.11 (12:30) 0 0 0 0 0
02-12-2019 11.6 (13:20) 6.7 (00:00) 9.2 12.5 (16:20) 7.5 (15:50) 0.7 0.1 0.6 0 0
01-12-2019 10.5 (14:20) 6.6 (00:00) 8.5 13.33 (11:50) 5.28 (11:10) 1 0 0 0.6 0.4
30-11-2019 15.8 (15:40) 9.7 (00:00) 12.8 11.39 (20:10) 4.17 (19:40) 0.6 0 0 0 0.6
29-11-2019 15.8 (14:00) 11 (00:00) 13.4 6.11 (19:50) 2.5 (01:10) 0 0 0 0 0
28-11-2019 15 (15:10) 8.6 (00:00) 11.8 10 (14:00) 3.06 (12:00) 0 0 0 0 0
27-11-2019 16.7 (15:00) 9 (00:00) 12.9 10 (01:00) 3.89 (02:10) 0.5 0.5 0 0 0
26-11-2019 16.4 (15:20) 10 (00:00) 13.2 10.28 (17:00) 4.17 (17:00) 2.1 0 0 0 2.1
25-11-2019 17.6 (14:50) 8.9 (00:00) 13.3 6.67 (14:00) 2.5 (14:00) 3.6 0.8 2.6 0.2 0
24-11-2019 13.8 (15:00) 1.4 (00:00) 7.6 6.39 (16:00) 2.78 (13:50) 0 0 0 0 0
23-11-2019 14.7 (14:10) 5.9 (00:00) 10.3 12.22 (00:30) 4.44 (00:30) 5.4 5.4 0 0 0
22-11-2019 14 (16:40) 8.5 (00:00) 11.3 11.94 (23:59) 6.94 (12:10) 27.8 0.1 6.9 20.1 0.7
21-11-2019 11.3 (17:30) 7.5 (00:00) 9.4 4.72 (10:50) 2.22 (10:40) 4.4 0.2 3.4 0.8 0
20-11-2019 8.7 (12:10) 2.6 (00:00) 5.6 7.22 (12:30) 3.89 (12:30) 1.9 0 0 1.6 0.3
19-11-2019 12.3 (15:00) -0.8 (-00:0) 5.8 3.89 (15:10) 1.39 (19:20) -- -- 0 0 0
18-11-2019 15.1 (15:30) 3.2 (00:00) 9.2 5.28 (15:40) 2.22 (03:10) -- -- -- -- --
17-11-2019 10.5 (23:10) -0.6 (-00:0) 4.9 6.94 (21:00) 2.22 (14:00) -- -- -- -- --
16-11-2019 13.4 (14:50) -2.9 (-00:0) 5.2 9.17 (14:50) 2.78 (15:00) -- -- -- -- --

Gráficas

Temp. máximas Temp. mínimas Temp. medias Precipitaciones Rachas de viento máximas Velocidades máximas media en intervalos de 10 minutos

Datos horarios

Fecha y hora oficial Temperatura (ºC) Velocidad del viento (km/h) Dirección del viento Racha (km/h) Dirección de racha Precipitación (mm) Presión (hPa) Tendencia (hPa) Humedad (%)
2019-12-15 23:00:00 8.9 0 Calma 6 Sudeste 0 949.4 -1.5 84
2019-12-15 22:00:00 8.7 0 Calma 7 Sudeste 0 949.9 -1 81
2019-12-15 21:00:00 10.1 4 Sudeste 10 Sudeste 0 950.3 -0.7 76
2019-12-15 20:00:00 10.5 0 Calma -- -- 0 950.9 -0.8 69
2019-12-15 19:00:00 10.8 0 Calma -- -- 0 950.9 -1.3 63
2019-12-15 18:00:00 11.3 0 Calma 12 Sudoeste 0 951 -1.8 60
2019-12-15 17:00:00 11.5 9 Sur 21 Sudoeste 0 951.7 -1.8 56
2019-12-15 16:00:00 12.4 7 Sudoeste 16 Sudoeste 0 952.2 -2.4 55
2019-12-15 15:00:00 12.1 8 Sur 20 Sudoeste 0 952.8 -2.7 53
2019-12-15 14:00:00 12.8 6 Sudoeste 17 Sudoeste 0 953.5 -2.1 51
2019-12-15 13:00:00 12.5 11 Sudoeste 20 Sudoeste 0 954.6 -1.1 53
2019-12-15 12:00:00 12.6 10 Sudoeste 21 Sudoeste 0 955.5 0.2 59
2019-12-15 11:00:00 10.8 10 Sur 17 Sur 0 955.6 0.2 70
2019-12-15 10:00:00 10.3 0 Calma 5 Sudoeste 0 955.7 0.7 87
2019-12-15 09:00:00 9.6 0 Calma 6 Sudoeste 0 955.3 0.1 89
2019-12-15 08:00:00 9.6 0 Calma 5 Sudoeste 0 955.4 0 89
2019-12-15 07:00:00 9.4 0 Calma 0 Calma 0 955 -1 90
2019-12-15 06:00:00 9.4 0 Calma 5 Oeste 0 955.2 -1.3 88
2019-12-15 05:00:00 9.7 0 Calma 8 Oeste 0 955.4 -0.9 88
2019-12-15 04:00:00 10 0 Calma 7 Oeste 0 956 -1.1 87
2019-12-15 03:00:00 10 3 Oeste 7 Oeste 0 956.5 -1.1 85
2019-12-15 02:00:00 10.1 3 Sudoeste 7 Sudoeste 0 956.3 -1.6 84
2019-12-15 01:00:00 10.2 3 Noroeste 8 Noroeste 0 957.1 -0.7 82
2019-12-15 00:00:00 10.2 3 Oeste 9 Oeste 0 957.6 -0.4 81
2019-12-14 23:00:00 10.2 2 Norte 7 Oeste 0 957.9 0.1 81
2019-12-14 22:00:00 10.2 0 Calma 9 Oeste 0 957.8 -0.2 82
2019-12-14 21:00:00 10.5 3 Sudoeste 12 Sudoeste 0 958 0.1 77
2019-12-14 20:00:00 10.5 3 Oeste 9 Sudoeste 0 957.8 0.1 77
2019-12-14 19:00:00 10.8 4 Sudoeste 12 Sudoeste 0 958 0.3 77
2019-12-14 18:00:00 10.8 6 Sudoeste 15 Sudoeste 0 957.9 -0.2 76
2019-12-14 17:00:00 11.1 6 Sudoeste 20 Oeste 0 957.7 -0.6 73
2019-12-14 16:00:00 11.3 7 Sudoeste 18 Oeste 0 957.7 -1.1 71
2019-12-14 15:00:00 11 4 Oeste 16 Sudoeste 0 958.1 -1.1 72
2019-12-14 14:00:00 12 7 Sudoeste 19 Sudoeste 0 958.3 -1.3 67
2019-12-14 13:00:00 11.8 3 Oeste 15 Oeste 0 958.8 -0.2 69
2019-12-14 12:00:00 11.5 4 Sudoeste 14 Oeste 0 959.2 0.5 66
2019-12-14 11:00:00 10.6 5 Oeste 16 Noroeste 0 959.6 1.1 71
2019-12-14 10:00:00 10.2 6 Oeste 22 Oeste 0 959 1.1 72
2019-12-14 09:00:00 9.8 8 Sudoeste 23 Oeste 0 958.7 0.8 74
2019-12-14 08:00:00 10.2 5 Oeste 18 Oeste 0 958.5 0.5 77
2019-12-14 07:00:00 10.3 8 Oeste 21 Oeste 0 957.9 0 85
2019-12-14 06:00:00 10.4 5 Oeste 21 Oeste 0 957.9 -0.5 86
2019-12-14 05:00:00 10.6 5 Oeste 20 Oeste 0 958 -0.3 85
2019-12-14 04:00:00 10.7 6 Sudoeste 19 Sudoeste 0 957.9 -0.8 84
2019-12-14 03:00:00 10.8 9 Oeste 22 Sudoeste 0 958.4 -0.2 84
2019-12-14 02:00:00 10.8 4 Oeste 23 Oeste 0 958.3 -0.2 85
2019-12-14 01:00:00 10.9 7 Oeste 25 Sudoeste 0 958.7 0.1 84
2019-12-14 00:00:00 11 7 Oeste 23 Oeste 0 958.6 0.3 83
2019-12-13 23:00:00 11.4 11 Oeste 30 Oeste 0 958.5 0.4 82
2019-12-13 22:00:00 11.3 10 Sudoeste 23 Sudoeste 0 958.6 0.5 85
2019-12-13 21:00:00 11.4 10 Sudoeste 26 Sudoeste 0 958.3 0.7 84
2019-12-13 20:00:00 12 9 Sudoeste 23 Sudoeste 0 958.1 0.7 80
2019-12-13 19:00:00 12 9 Sudoeste 30 Oeste 0 958.1 1.2 76
2019-12-13 18:00:00 12.6 13 Sudoeste 28 Oeste 0 957.6 0.7 73
2019-12-13 17:00:00 14.6 12 Oeste 30 Oeste 0 957.4 0.3 63
2019-12-13 16:00:00 14.7 11 Oeste 35 Oeste 0 956.9 -1.1 62
2019-12-13 15:00:00 16 12 Oeste 35 Oeste 0 956.9 -1.9 55
2019-12-13 14:00:00 15.8 12 Oeste 32 Oeste 0 957.1 -1.9 56
2019-12-13 13:00:00 15.1 9 Oeste 37 Sudoeste 0 958 0.2 63
2019-12-13 12:00:00 13 13 Oeste 36 Oeste 0 958.8 2.2 72
2019-12-13 11:00:00 12.5 8 Oeste 31 Oeste 0 959 2.5 76
2019-12-13 10:00:00 11 7 Oeste 33 Oeste 0 957.8 1.7 82
2019-12-13 09:00:00 10.8 8 Oeste 41 Oeste 0 956.6 0.6 82
2019-12-13 08:00:00 10.8 15 Oeste 30 Oeste 0 956.5 0.8 82
2019-12-13 07:00:00 11.5 11 Oeste 35 Oeste 0 956.1 1.2 83
2019-12-13 06:00:00 11.5 8 Oeste 32 Oeste 0 956 0.6 85
2019-12-13 05:00:00 11.7 11 Oeste 36 Sudoeste 0 955.7 -0.3 89
2019-12-13 04:00:00 11.3 14 Oeste 36 Oeste 0 954.9 -0.7 93
2019-12-13 03:00:00 11 11 Oeste 30 Sudoeste 0 955.4 -0.7 94
2019-12-13 02:00:00 10.7 11 Oeste 39 Oeste 0.1 956 -0.3 94
2019-12-13 01:00:00 10.7 16 Oeste 38 Oeste 0.1 955.6 -0.8 94
2019-12-13 00:00:00 10.4 13 Oeste 37 Oeste 0.1 956.1 -0.3 94
2019-12-12 23:00:00 10.2 13 Oeste 35 Oeste 0 956.3 -0.5 94
2019-12-12 22:00:00 10 13 Oeste 39 Sudoeste 0 956.4 -0.6 93
2019-12-12 21:00:00 9.5 15 Oeste 37 Sudoeste 0 956.4 -0.8 92
2019-12-12 20:00:00 9.2 11 Oeste 37 Sudoeste 0 956.8 -0.8 91
2019-12-12 19:00:00 9.1 14 Sudoeste 38 Oeste 0 957 -1 90
2019-12-12 18:00:00 9.3 14 Oeste 42 Sudoeste 0 957.2 -1.7 82
2019-12-12 17:00:00 9.5 12 Oeste 37 Oeste 0 957.6 -2.1 82
2019-12-12 16:00:00 9.2 13 Oeste 34 Oeste 0 958 -2.8 77
2019-12-12 15:00:00 9 12 Oeste 31 Oeste 0 958.9 -3.4 76
2019-12-12 14:00:00 8.8 10 Oeste 30 Oeste 0 959.7 -3 77
2019-12-12 13:00:00 7.6 6 Sudoeste 21 Sudoeste 0 960.8 -1.3 87
2019-12-12 12:00:00 7.1 5 Oeste 20 Sudoeste 0 962.3 0.7 89
2019-12-12 11:00:00 6.2 5 Oeste 17 Oeste 0 962.7 0.6 96
2019-12-12 10:00:00 5.8 0 Calma 7 Sudoeste 0 962.1 0.2 97
2019-12-12 09:00:00 0.9 0 Calma 6 Noroeste 0 961.6 -0.1 97
2019-12-12 08:00:00 0.9 0 Calma 4 Nordeste 0 962.1 -0.4 97
2019-12-12 07:00:00 0.7 0 Calma 4 Norte 0 961.9 -0.7 97
2019-12-12 06:00:00 0.6 0 Calma 9 Noroeste 0 961.7 -1.9 97
2019-12-12 05:00:00 0.8 4 Nordeste 7 Nordeste 0 962.5 -0.9 97
2019-12-12 04:00:00 0.3 0 Calma 4 Nordeste 0 962.6 -0.8 97
2019-12-12 03:00:00 0.8 0 Calma 7 Noroeste 0 963.6 -0.2 97
2019-12-12 02:00:00 1.4 3 Noroeste 7 Noroeste 0 963.4 -0.7 97
2019-12-12 01:00:00 1.6 0 Calma 5 Sudoeste 0 963.4 -0.5 96
2019-12-12 00:00:00 1.2 3 Norte 8 Oeste 0 963.8 -0.1 96
2019-12-11 23:00:00 3.6 0 Calma 4 Sur 0 964.1 0.4 96
2019-12-11 22:00:00 3.8 0 Calma 10 Sudoeste 0 963.9 0.8 95
2019-12-11 21:00:00 5.4 4 Sudoeste 7 Sudoeste 0 963.9 1 94
2019-12-11 20:00:00 5.9 2 Sudoeste 10 Sudoeste 0 963.7 1.5 92
2019-12-11 19:00:00 7 5 Sudoeste 10 Sudoeste 0 963.1 1.5 87
2019-12-11 18:00:00 7.9 5 Sudoeste 12 Oeste 0 962.9 1.8 82
2019-12-11 17:00:00 10 5 Oeste 16 Sudoeste 0 962.2 1.3 73
2019-12-11 16:00:00 9.6 6 Oeste 19 Oeste 0 961.6 -0.1 75
2019-12-11 15:00:00 9.5 4 Oeste 19 Oeste 0 961.1 -1.6 84
2019-12-11 14:00:00 8.8 5 Oeste 15 Oeste 0 960.9 -2 94
2019-12-11 13:00:00 6.7 2 Nordeste 6 Nordeste 0 961.7 -1.4 96
2019-12-11 12:00:00 5.1 3 Nordeste 6 Nordeste 0 962.7 0.3 96
2019-12-11 11:00:00 3.7 0 Calma 4 Este 0 962.9 0.9 97
2019-12-11 10:00:00 3 0 Calma 6 Nordeste 0 963.1 1.2 97
2019-12-11 09:00:00 1.3 0 Calma 3 Sudeste 0 962.4 0.6 97
2019-12-11 08:00:00 1.2 0 Calma 4 Este 0 962 -0.3 97
2019-12-11 07:00:00 1.2 0 Calma 2 Sudeste 0 961.9 -0.8 97
2019-12-11 06:00:00 1 0 Calma 8 Este 0 961.8 -1.1 97
2019-12-11 05:00:00 1.6 0 Calma 4 Sur 0 962.3 -0.6 97
2019-12-11 04:00:00 1.6 0 Calma 0 Calma 0 962.7 -0.5 97
2019-12-11 03:00:00 1.9 0 Calma 6 Oeste 0 962.9 -1 96
2019-12-11 02:00:00 2.3 0 Calma 3 Noroeste 0 962.9 -0.9 97
2019-12-11 01:00:00 3.3 0 Calma 0 Calma 0 963.2 -0.4 96
2019-12-11 00:00:00 3.8 0 Calma 3 Nordeste 0 963.9 -0.1 96
2019-12-10 23:00:00 4.5 0 Calma 6 Sudoeste 0 963.8 -0.3 93
2019-12-10 22:00:00 5.1 0 Calma 5 Oeste 0 963.6 -0.4 90
2019-12-10 21:00:00 6.5 0 Calma 4 Oeste 0 964 0 84
2019-12-10 20:00:00 7.1 0 Calma -- -- 0 964.1 -0.3 77
2019-12-10 19:00:00 8.5 0 Calma 8 Oeste 0 964 -0.4 66
2019-12-10 18:00:00 10 2 Oeste 7 Oeste 0 964 -0.7 55
2019-12-10 17:00:00 11.6 0 Calma -- -- 0 964.4 -1.5 48
2019-12-10 16:00:00 11.8 0 Calma 15 Este 0 964.4 -2 47
2019-12-10 15:00:00 12.2 5 Sudeste 11 Este 0 964.7 -1.9 50
2019-12-10 14:00:00 11.2 5 Este 25 Este 0 965.9 -1.4 54
2019-12-10 13:00:00 9.1 9 Sudeste 15 Sudeste 0 966.4 -0.7 67
2019-12-10 12:00:00 8.6 5 Sudeste 13 Este 0 966.6 -0.5 67
2019-12-10 11:00:00 7.3 5 Este 14 Este 0 967.3 0.2 79
2019-12-10 10:00:00 5.8 6 Este 19 Este 0 967.1 -0.1 86
2019-12-10 09:00:00 5.5 9 Sudeste 21 Este 0 967.1 -0.2 90
2019-12-10 08:00:00 5 12 Este 21 Este 0 967.1 0 92
2019-12-10 07:00:00 5 13 Este 21 Este 0 967.2 -0.1 92
2019-12-10 06:00:00 5.3 11 Este 17 Nordeste 0 967.3 -0.1 92
2019-12-10 05:00:00 5.5 11 Este 18 Nordeste 0 967.1 -0.4 95
2019-12-10 04:00:00 5.6 11 Este 17 Este 0 967.3 -0.6 96
2019-12-10 03:00:00 6.2 8 Este 14 Este 0 967.4 -0.5 96
2019-12-10 02:00:00 6.5 5 Este 9 Este 0 967.5 -0.4 92
2019-12-10 01:00:00 7.2 3 Sudeste 6 Sudeste 0 967.9 0.2 91
2019-12-10 00:00:00 7.5 0 Calma 9 Este 0 967.9 0.5 90
2019-12-09 23:00:00 8.5 0 Calma 8 Noroeste 0 967.9 0.6 85
2019-12-09 22:00:00 9.2 2 Norte 10 Noroeste 0 967.7 0.9 84
2019-12-09 21:00:00 9.5 0 Calma 8 Noroeste 0 967.4 0.8 84
2019-12-09 20:00:00 10 0 Calma 10 Oeste 0 967.3 -- 84
2019-12-09 19:00:00 10.3 2 Oeste 8 Oeste 0 966.8 -- 85
2019-12-09 18:00:00 10.4 0 Calma -- -- -- 966.6 -- 82
2019-12-09 17:00:00 -- -- -- -- -- -- -- -- --
2019-12-09 16:00:00 -- -- -- -- -- -- -- -- --
2019-12-09 15:00:00 -- -- -- -- -- -- -- -- --
2019-12-09 14:00:00 -- -- -- -- -- -- -- -- --
2019-12-09 13:00:00 10 2 Este 8 Este 0 967.9 0.3 90
2019-12-09 12:00:00 9.8 4 Este 8 Sudeste 0 968.4 1.7 93
2019-12-09 11:00:00 9.3 2 Este 11 Este 0 968.1 1.6 96
2019-12-09 10:00:00 9.2 2 Sudeste 8 Este 0 967.6 2 96
2019-12-09 09:00:00 9.1 3 Sudeste 8 Este 0 966.7 1.3 96
2019-12-09 08:00:00 9 0 Calma 5 Sur 0 966.5 0.9 96
2019-12-09 07:00:00 8.8 0 Calma 4 Norte 0 965.6 0.4 96
2019-12-09 06:00:00 8.8 0 Calma 4 Sur 0.1 965.4 0.6 96
2019-12-09 05:00:00 8.7 0 Calma 4 Este 0 965.6 0.8 96
2019-12-09 04:00:00 8.9 0 Calma 3 Sur 0 965.2 0.2 97
2019-12-09 03:00:00 8.6 0 Calma 4 Norte 0 964.8 -0.4 96
2019-12-09 02:00:00 8.8 0 Calma 4 Nordeste 0 964.8 -0.1 96
2019-12-09 01:00:00 9 0 Calma 5 Sudoeste 0 965 0.7 94
2019-12-09 00:00:00 8.8 0 Calma 5 Sudoeste 0 965.2 0.7 93
2019-12-08 23:00:00 8.9 0 Calma 7 Sudoeste 0 964.9 1.2 94
2019-12-08 22:00:00 8.3 5 Sudoeste 7 Sudoeste 0 964.3 0.4 94
2019-12-08 21:00:00 8.4 3 Sudoeste 13 Oeste 0 964.5 0.6 93
2019-12-08 20:00:00 8.8 6 Sudoeste 10 Oeste 0 963.7 0 93
2019-12-08 19:00:00 8.6 0 Calma 4 Norte 0.3 963.9 0.5 93
2019-12-08 18:00:00 9.1 0 Calma -- -- 0 963.9 0.5 86
2019-12-08 17:00:00 9.8 0 Calma 4 Este 0 963.7 0.1 82
2019-12-08 16:00:00 9.2 0 Calma 5 Nordeste 0 963.4 -0.7 85
2019-12-08 15:00:00 8 0 Calma 5 Este 0 963.4 -1.7 95
2019-12-08 14:00:00 7.1 0 Calma 6 Sur 0 963.6 -1.6 96
2019-12-08 13:00:00 5.4 0 Calma 8 Este 0 964.1 -0.5 96
2019-12-08 12:00:00 4.6 2 Este 11 Este 0 965.1 0.5 96
2019-12-08 11:00:00 4 3 Este 8 Sudeste 0 965.2 1.3 96
2019-12-08 10:00:00 3.7 0 Calma 7 Este 0 964.6 1.2 96
2019-12-08 09:00:00 3.5 0 Calma 7 Este 0 964.6 1.2 96
2019-12-08 08:00:00 3.5 4 Este 10 Nordeste 0.1 963.9 0.5 96
2019-12-08 07:00:00 4 0 Calma 10 Este 0 963.4 -0.1 96
2019-12-08 06:00:00 4.3 0 Calma 7 Nordeste 0 963.4 -0.4 96
2019-12-08 05:00:00 4.3 2 Nordeste 9 Este 0 963.4 -0.2 96
2019-12-08 04:00:00 4.5 0 Calma 11 Este 0 963.5 -0.4 96
2019-12-08 03:00:00 4.7 2 Sudeste 8 Sudeste 0 963.8 -0.4 96
2019-12-08 02:00:00 5.1 0 Calma 6 Nordeste 0 963.6 -0.4 97
2019-12-08 01:00:00 5.2 2 Nordeste 8 Nordeste 0 963.9 0.4 97
2019-12-08 00:00:00 5.5 3 Nordeste 24 Este 0 964.2 0.8 96
2019-12-07 23:00:00 5.5 0 Calma 6 Nordeste 0 964 1 96
2019-12-07 22:00:00 5.4 0 Calma 7 Este 0 963.5 0.9 96
2019-12-07 21:00:00 5.7 0 Calma 7 Este 0 963.4 1.3 96
2019-12-07 20:00:00 6 0 Calma 6 Este 0 963 0.9 93
2019-12-07 19:00:00 6.5 2 Este 9 Sudeste 0 962.6 1.2 90
2019-12-07 18:00:00 8.5 0 Calma 5 Sudeste 0 962.1 0.8 77
2019-12-07 17:00:00 9.8 3 Este 12 Sur 0 962.1 0.3 68
2019-12-07 16:00:00 10.4 6 Sudeste 14 Sudeste 0 961.4 -1 68
2019-12-07 15:00:00 9.3 4 Sudeste 13 Sudeste 0 961.3 -1.6 74
2019-12-07 14:00:00 8.5 4 Sudeste 16 Este 0 961.8 -1.2 81
2019-12-07 13:00:00 7.4 6 Este 17 Sudeste 0 962.4 0 89
2019-12-07 12:00:00 6.9 8 Sudeste 21 Sudeste 0 962.9 0.7 94
2019-12-07 11:00:00 6.2 0 Calma 7 Este 0 963 1.3 97
2019-12-07 10:00:00 5.2 0 Calma 5 Este 0 962.4 0.9 97
2019-12-07 09:00:00 4.2 0 Calma -- -- 0 962.2 1 97
2019-12-07 08:00:00 4.1 0 Calma -- -- 0 961.7 0.8 97
2019-12-07 07:00:00 3.4 0 Calma -- -- 0 961.5 0.7 97
2019-12-07 06:00:00 2.7 0 Calma -- -- 0 961.2 0.5 97
2019-12-07 05:00:00 2.7 0 Calma -- -- 0 960.9 0.1 97
2019-12-07 04:00:00 3.9 0 Calma -- -- 0 960.8 0 97
2019-12-07 03:00:00 4.1 0 Calma 0 Calma 0 960.7 0.1 97
2019-12-07 02:00:00 5 3 Sudoeste 6 Sudoeste 0 960.8 0.4 96
2019-12-07 01:00:00 5.4 0 Calma 4 Sudoeste 0 960.8 0.7 94
2019-12-07 00:00:00 6.8 3 Oeste 10 Oeste 0 960.6 0.7 86
2019-12-06 23:00:00 8.4 0 Calma 6 Oeste 0 960.4 0.6 81
2019-12-06 22:00:00 8.6 0 Calma 7 Sur 0 960.1 0.8 81
2019-12-06 21:00:00 9.1 0 Calma 13 Este 0 959.9 1.2 77
2019-12-06 20:00:00 9.5 7 Este 14 Este 0 959.8 1.5 77
2019-12-06 19:00:00 10.1 2 Este 13 Nordeste 0 959.3 0.7 70
2019-12-06 18:00:00 11.9 2 Este 18 Nordeste 0 958.7 0.9 58
2019-12-06 17:00:00 13.9 10 Este 16 Este 0 958.3 -0.6 50
2019-12-06 16:00:00 14.9 7 Nordeste 20 Sudeste 0 958.6 -1.1 47
2019-12-06 15:00:00 14.9 9 Este 20 Este 0 957.8 -2.1 47
2019-12-06 14:00:00 15.2 10 Sudeste 37 Este 0 958.9 -1.4 51
2019-12-06 13:00:00 14.6 5 Sudeste 16 Sudeste 0 959.7 -0.3 54
2019-12-06 12:00:00 12.7 6 Sudeste 15 Sudeste 0 959.9 0.3 59
2019-12-06 11:00:00 10 0 Calma 9 Nordeste 0 960.3 0.9 69
2019-12-06 10:00:00 7.8 0 Calma 8 Sudeste 0 960 1.1 81
2019-12-06 09:00:00 5.2 0 Calma -- -- 0 959.6 1.4 96
2019-12-06 08:00:00 4.6 0 Calma 9 Sudoeste 0 959.4 1.3 96
2019-12-06 07:00:00 5.9 0 Calma 6 Nordeste 0 958.9 0.9 93
2019-12-06 06:00:00 6.5 0 Calma 5 Norte 0 958.2 0.6 93
2019-12-06 05:00:00 7.3 0 Calma 6 Este 0 958.1 0.2 89
2019-12-06 04:00:00 7.4 0 Calma 12 Sudeste 0 958 -0.2 87
2019-12-06 03:00:00 8.3 3 Este 7 Este 0 957.6 -0.4 85
2019-12-06 02:00:00 8.6 0 Calma 11 Este 0 957.9 0.2 83
2019-12-06 01:00:00 8.6 0 Calma 12 Sudeste 0 958.2 1 84
2019-12-06 00:00:00 8.8 5 Este 24 Este 0 958 1.4 77
2019-12-05 23:00:00 9.3 10 Este 24 Sudeste 0 957.7 1.6 75
2019-12-05 22:00:00 9.5 4 Sur 17 Sudeste 0 957.2 1.7 75
2019-12-05 21:00:00 9.8 2 Este 14 Nordeste 0 956.6 1.7 71
2019-12-05 20:00:00 10.2 10 Este 22 Este 0 956.1 1.3 68
2019-12-05 19:00:00 10.7 11 Nordeste 25 Nordeste 0 955.5 1.3 66
2019-12-05 18:00:00 10.9 14 Nordeste 28 Nordeste 0 954.9 0.9 63
2019-12-05 17:00:00 11.5 19 Nordeste 34 Nordeste 0 954.8 0.7 59
2019-12-05 16:00:00 12.4 20 Nordeste 38 Nordeste 0 954.2 -0.2 54
2019-12-05 15:00:00 11.8 21 Nordeste 36 Este 0 954 -0.9 55
2019-12-05 14:00:00 11.8 20 Este 36 Este 0 954.1 -0.3 55
2019-12-05 13:00:00 11.8 17 Nordeste 27 Nordeste 0 954.4 0.8 57
2019-12-05 12:00:00 10.8 10 Nordeste 23 Norte 0 954.9 1.9 60
2019-12-05 11:00:00 10.1 13 Nordeste 20 Nordeste 0 954.4 2 62
2019-12-05 10:00:00 9.7 0 Calma 16 Este 0 953.6 1.9 67
2019-12-05 09:00:00 9 5 Este 28 Este 0 953 1.8 70
2019-12-05 08:00:00 8.6 10 Este 23 Este 0 952.4 1.6 70
2019-12-05 07:00:00 6.9 0 Calma 17 Nordeste 0 951.7 1 82
2019-12-05 06:00:00 7.1 0 Calma 11 Oeste 0 951.2 0.9 85
2019-12-05 05:00:00 7.1 7 Sudoeste 13 Oeste 0 950.8 0.9 89
2019-12-05 04:00:00 7.2 2 Oeste 10 Oeste 0 950.7 1 89
2019-12-05 03:00:00 7.4 0 Calma 8 Sudoeste 0 950.3 0.6 89
2019-12-05 02:00:00 8.4 6 Noroeste 10 Oeste 0 949.9 0.8 85
2019-12-05 01:00:00 8.7 4 Nordeste 19 Nordeste 0 949.7 0.9 77
2019-12-05 00:00:00 9.1 3 Nordeste 15 Nordeste 0 949.7 1.1 77
2019-12-04 23:00:00 8.4 0 Calma 8 Oeste 0 949.1 0.8 92
2019-12-04 22:00:00 8.5 3 Oeste 9 Oeste 0 948.8 1.2 94
2019-12-04 21:00:00 8.6 2 Oeste 11 Oeste 0 948.6 1.1 94
2019-12-04 20:00:00 8.5 0 Calma 6 Oeste 0 948.3 1.3 96
2019-12-04 19:00:00 8.5 0 Calma 6 Sudoeste 0.1 947.6 1.2 96
2019-12-04 18:00:00 8.6 0 Calma 9 Norte 0.1 947.5 0.9 93
2019-12-04 17:00:00 8.8 0 Calma 7 Norte 0.6 947 0.1 89
2019-12-04 16:00:00 9.9 0 Calma 10 Norte 0 946.4 -0.8 77
2019-12-04 15:00:00 11.1 0 Calma 9 Noroeste 0 946.6 -1.5 66
2019-12-04 14:00:00 10.8 0 Calma 9 Oeste 0 946.9 -1.6 62
2019-12-04 13:00:00 10.8 3 Oeste 10 Oeste 0 947.2 -1.3 64
2019-12-04 12:00:00 8.7 0 Calma 6 Nordeste 0 948.1 -0.2 70
2019-12-04 11:00:00 6.9 0 Calma 6 Nordeste 0 948.5 0.4 78
2019-12-04 10:00:00 5 0 Calma 5 Nordeste 0 948.5 0 94
2019-12-04 09:00:00 3.8 0 Calma 4 Sur 0 948.3 0.2 96
2019-12-04 08:00:00 4 0 Calma 2 Oeste 0 948.1 -0.5 96
2019-12-04 07:00:00 4.2 0 Calma 2 Oeste 0 948.5 -0.8 94
2019-12-04 06:00:00 4.5 0 Calma 0 Calma 0 948.1 -1.7 91
2019-12-04 05:00:00 4.8 0 Calma -- -- 0 948.6 -2.2 89
2019-12-04 04:00:00 5.9 0 Calma 4 Noroeste 0 949.3 -1.8 83
2019-12-04 03:00:00 6.3 4 Oeste 8 Sudoeste 0 949.8 -1.6 77
2019-12-04 02:00:00 6.4 3 Oeste 8 Oeste 0 950.8 -0.7 75
2019-12-04 01:00:00 6.3 0 Calma 18 Este 0 951.1 -0.2 73
2019-12-04 00:00:00 7.7 9 Este 19 Este 0 951.4 0.1 67
2019-12-03 23:00:00 8.3 10 Este 24 Este 0 951.5 0.6 69
2019-12-03 22:00:00 8.8 10 Este 30 Este 0 951.3 0.8 70
2019-12-03 21:00:00 9 12 Este 21 Sudeste 0 951.3 0.9 70
2019-12-03 20:00:00 9.1 12 Este 23 Este 0 950.9 0.6 72
2019-12-03 19:00:00 9.4 13 Este 22 Este 0 950.5 0.3 71
2019-12-03 18:00:00 9.4 14 Este 31 Este 0 950.4 0.1 70
2019-12-03 17:00:00 10.1 13 Este 31 Este 0 950.3 -0.4 67
2019-12-03 16:00:00 10.2 17 Este 31 Este 0 950.2 -0.8 66
2019-12-03 15:00:00 10.5 17 Este 35 Este 0 950.3 -1.6 65
2019-12-03 14:00:00 10.8 22 Nordeste 37 Nordeste 0 950.7 -1.9 62
2019-12-03 13:00:00 10.6 17 Este 33 Este 0 951 -1.5 64
2019-12-03 12:00:00 10.2 21 Nordeste 31 Nordeste 0 951.9 -0.2 67
2019-12-03 11:00:00 9.3 15 Este 36 Este 0 952.6 0.4 69
2019-12-03 10:00:00 8.8 17 Este 32 Nordeste 0 952.5 0.6 69
2019-12-03 09:00:00 8.5 19 Nordeste 29 Nordeste 0 952.1 0.4 70
2019-12-03 08:00:00 8.2 10 Nordeste 24 Nordeste 0 952.2 0.2 72
2019-12-03 07:00:00 8.3 6 Este 30 Nordeste 0 951.9 -0.4 71
2019-12-03 06:00:00 8.4 13 Nordeste 28 Este 0 951.7 -0.9 70
2019-12-03 05:00:00 8.3 13 Este 23 Este 0 952 -0.3 70
2019-12-03 04:00:00 8 6 Este 24 Sudeste 0 952.3 -1.3 67
2019-12-03 03:00:00 8.4 7 Este 26 Este 0 952.6 -1.1 66
2019-12-03 02:00:00 8.8 10 Este 20 Este 0 952.3 -1.5 69
2019-12-03 01:00:00 8.4 6 Este 15 Este 0 953.6 -0.2 72
2019-12-03 00:00:00 8.9 7 Nordeste 24 Este 0 953.7 0.1 68
2019-12-02 23:00:00 9.7 14 Nordeste 24 Nordeste 0 953.8 1.1 66
2019-12-02 22:00:00 9.8 11 Este 26 Nordeste 0 953.8 1.9 68
2019-12-02 21:00:00 9.9 17 Nordeste 35 Este 0 953.6 2.1 69
2019-12-02 20:00:00 10 17 Nordeste 33 Nordeste 0 952.7 1.3 70
2019-12-02 19:00:00 10.1 20 Nordeste 36 Este 0 951.9 1.1 70
2019-12-02 18:00:00 9.8 18 Nordeste 40 Este 0 951.5 0.7 71
2019-12-02 17:00:00 9.9 22 Nordeste 45 Nordeste 0 951.4 0.5 70
2019-12-02 16:00:00 10.3 23 Nordeste 40 Nordeste 0 950.8 -0.7 67
2019-12-02 15:00:00 9.8 26 Nordeste 40 Nordeste 0 950.8 -0.9 70
2019-12-02 14:00:00 10.4 23 Nordeste 41 Nordeste 0 950.9 -0.5 64
2019-12-02 13:00:00 10 20 Este 35 Nordeste 0 951.5 0.6 70
2019-12-02 12:00:00 8.9 12 Este 23 Este 0.3 951.7 1.5 83
2019-12-02 11:00:00 8.4 10 Este 33 Este 0.3 951.4 1.6 89
2019-12-02 10:00:00 8.7 24 Este 38 Este 0 950.9 1.7 77
2019-12-02 09:00:00 8.9 10 Nordeste 26 Este 0 950.2 1.5 77
2019-12-02 08:00:00 8.4 9 Este 18 Nordeste 0 949.8 1.2 77
2019-12-02 07:00:00 8.1 4 Nordeste 16 Sudeste 0 949.2 0.4 80
2019-12-02 06:00:00 8.1 3 Este 19 Sudeste 0 948.7 0.1 85
2019-12-02 05:00:00 8.2 0 Calma 14 Este 0 948.6 0.1 85
2019-12-02 04:00:00 7.9 6 Sudeste 13 Este 0 948.8 0.3 85
2019-12-02 03:00:00 7.2 0 Calma 5 Este 0 948.6 0 90
2019-12-02 02:00:00 6.8 0 Calma 7 Sudeste 0.1 948.5 0.3 93
2019-12-02 01:00:00 7.2 0 Calma 3 Este 0 948.5 0.1 96
2019-12-02 00:00:00 7.1 0 Calma 6 Este 0 948.6 0 95
2019-12-01 23:00:00 7.2 3 Sudeste 10 Sudeste 0 948.2 -0.3 94
2019-12-01 22:00:00 7.5 0 Calma 12 Sudeste 0.3 948.4 0.3 93
2019-12-01 21:00:00 8.3 4 Este 14 Este 0.1 948.6 0.7 92
2019-12-01 20:00:00 8.3 5 Este 11 Este 0 948.5 0.9 92
2019-12-01 19:00:00 8.9 3 Este 13 Este 0 948.1 0.2 90
2019-12-01 18:00:00 9.1 3 Este 13 Sudoeste 0 947.9 -0.2 88
2019-12-01 17:00:00 9.6 10 Sudoeste 17 Sudoeste 0 947.6 -0.9 89
2019-12-01 16:00:00 10.1 7 Sudoeste 17 Sudoeste 0 947.9 -1.9 89
2019-12-01 15:00:00 10.1 8 Sur 26 Sur 0.5 948.1 -2.2 91
2019-12-01 14:00:00 10.4 17 Sur 31 Sur 0.1 948.5 -2.6 89
2019-12-01 13:00:00 10.2 13 Sur 24 Sudoeste 0 949.8 -1.5 92
2019-12-01 12:00:00 9.4 14 Sudoeste 48 Oeste 0 950.3 -1.1 87
2019-12-01 11:00:00 8.6 17 Sur 28 Sur 0 951.1 -0.4 89
2019-12-01 10:00:00 8.4 12 Sur 20 Sur 0 951.3 -0.5 90
2019-12-01 09:00:00 8.2 0 Calma 12 Sur 0 951.4 -0.5 90
2019-12-01 08:00:00 8 6 Sur 12 Sudoeste 0 951.5 -1.2 90
2019-12-01 07:00:00 8.1 0 Calma 8 Norte 0 951.8 -0.9 93
2019-12-01 06:00:00 7.9 0 Calma 8 Oeste 0 951.9 -1.5 93
2019-12-01 05:00:00 7.1 0 Calma 8 Sudoeste 0 952.7 -1.2 93
2019-12-01 04:00:00 8.2 3 Sudoeste 13 Sudoeste 0 952.7 -1.8 90
2019-12-01 03:00:00 8.5 0 Calma 16 Oeste 0 953.4 -0.8 90
2019-12-01 02:00:00 9.2 4 Sudoeste 14 Sudoeste 0 953.9 -1 92
2019-12-01 01:00:00 9.4 2 Oeste 16 Sudoeste 0 954.5 -0.5 92
2019-12-01 00:00:00 9.9 0 Calma 18 Oeste 0.1 954.2 -0.5 92
2019-11-30 23:00:00 10.1 8 Oeste 27 Sudoeste 0.4 954.9 -0.6 93
2019-11-30 22:00:00 11.3 8 Sudoeste 26 Sudoeste 0.1 955 0.2 92
2019-11-30 21:00:00 13 14 Sudoeste 41 Sudoeste 0 954.7 -1 72
2019-11-30 20:00:00 12.9 11 Sur 24 Sudoeste 0 955.5 -0.5 70
2019-11-30 19:00:00 13.3 5 Sudoeste 22 Sur 0 954.8 -1.9 70
2019-11-30 18:00:00 12.6 11 Sudoeste 21 Sudoeste 0 955.7 -1.6 70
2019-11-30 17:00:00 14 6 Sudoeste 18 Sudoeste 0 956 -2.1 69
2019-11-30 16:00:00 14.7 11 Sudoeste 22 Sudoeste 0 956.7 -2.1 62
2019-11-30 15:00:00 14.2 8 Sudoeste 22 Sudoeste 0 957.3 -2.4 68
2019-11-30 14:00:00 14.8 4 Oeste 13 Oeste 0 958.1 -2 68
2019-11-30 13:00:00 15.1 0 Calma 10 Noroeste 0 958.8 -1.3 67
2019-11-30 12:00:00 14.2 0 Calma 13 Sudoeste 0 959.7 0.1 70
2019-11-30 11:00:00 13.3 0 Calma 10 Sur 0 960.1 0.8 77
2019-11-30 10:00:00 11.8 0 Calma 0 Calma 0 960.1 0.5 91
2019-11-30 09:00:00 10.5 0 Calma -- -- 0 959.6 -0.2 96
2019-11-30 08:00:00 10.3 0 Calma -- -- 0 959.3 -0.8 96
2019-11-30 07:00:00 10.2 0 Calma -- -- 0 959.6 -0.1 96
2019-11-30 06:00:00 10.6 0 Calma 2 Sudoeste 0 959.8 0.1 96
2019-11-30 05:00:00 10.8 0 Calma 4 Noroeste 0 960.1 -0.3 96
2019-11-30 04:00:00 10.7 0 Calma 7 Sudoeste 0 959.7 -1 93
2019-11-30 03:00:00 11.5 0 Calma -- -- 0 959.7 -0.8 91
2019-11-30 02:00:00 11.9 0 Calma 6 Sudoeste 0 960.4 -0.1 88
2019-11-30 01:00:00 12.4 0 Calma 7 Oeste 0 960.7 0.4 85
2019-11-30 00:00:00 12.4 0 Calma -- -- 0 960.5 0.2 84
2019-11-29 23:00:00 12.9 0 Calma -- -- 0 960.5 0.1 81
2019-11-29 22:00:00 13 0 Calma -- -- 0 960.3 0 77
2019-11-29 21:00:00 13.2 0 Calma 13 Norte 0 960.3 0.2 77
2019-11-29 20:00:00 13.4 3 Sur 22 Sur 0 960.4 0.5 75
2019-11-29 19:00:00 13.1 2 Sudoeste 9 Sudoeste 0 960.3 0.5 77
2019-11-29 18:00:00 13.7 3 Sudoeste 12 Sudoeste 0 960.1 0.4 76
2019-11-29 17:00:00 14.1 2 Sudoeste 14 Sudoeste 0 959.9 -0.2 73
2019-11-29 16:00:00 14.4 5 Sudoeste 13 Oeste 0 959.8 -0.7 69
2019-11-29 15:00:00 14.5 4 Sudoeste 17 Sudoeste 0 959.7 -1.1 67
2019-11-29 14:00:00 15.3 6 Oeste 21 Sudoeste 0 960.1 -0.6 63
2019-11-29 13:00:00 14.7 3 Sudoeste 14 Oeste 0 960.5 0.4 70
2019-11-29 12:00:00 14.1 0 Calma 15 Oeste 0 960.8 1.1 76
2019-11-29 11:00:00 13.8 0 Calma 5 Oeste 0 960.7 1.5 77
2019-11-29 10:00:00 11.9 0 Calma 14 Sudoeste 0 960.1 1.2 85
2019-11-29 09:00:00 11.7 0 Calma 14 Oeste 0 959.7 1.4 88
2019-11-29 08:00:00 11.3 0 Calma 17 Sudoeste 0 959.2 0.9 88
2019-11-29 07:00:00 11.8 5 Oeste 13 Oeste 0 958.9 0.8 85
2019-11-29 06:00:00 11.6 0 Calma 14 Oeste 0 958.3 0 84
2019-11-29 05:00:00 12.2 3 Sudoeste 14 Sudoeste 0 958.3 0.5 82
2019-11-29 04:00:00 12.2 3 Oeste 17 Oeste 0 958.1 0.4 82
2019-11-29 03:00:00 11.7 5 Sudoeste 10 Sudoeste 0 958.3 0.1 82
2019-11-29 02:00:00 11.4 5 Sudoeste 16 Sur 0 957.8 -0.1 82
2019-11-29 01:00:00 11.6 5 Sudoeste 12 Sudoeste 0 957.7 0 77
2019-11-29 00:00:00 11 3 Oeste 6 Oeste 0 958.2 0.4 84
2019-11-28 23:00:00 10.7 0 Calma 9 Oeste 0 957.9 1.1 85
2019-11-28 22:00:00 11.1 0 Calma 7 Oeste 0 957.7 1.2 81
2019-11-28 21:00:00 11 0 Calma 12 Sudoeste 0 957.8 1.2 77
2019-11-28 20:00:00 11.7 3 Sudoeste 8 Oeste 0 956.8 0.4 77
2019-11-28 19:00:00 12.3 2 Sudoeste 13 Sudoeste 0 956.5 0.1 74
2019-11-28 18:00:00 12.6 3 Sudoeste 17 Sudoeste 0 956.6 0 70
2019-11-28 17:00:00 13.3 5 Oeste 17 Sudoeste 0 956.4 -0.7 66
2019-11-28 16:00:00 13.4 6 Sudoeste 19 Sudoeste 0 956.4 -0.7 68
2019-11-28 15:00:00 13.8 7 Sudoeste 15 Sur 0 956.6 -1.5 74
2019-11-28 14:00:00 12.2 10 Sudoeste 36 Sudoeste 0 957.1 -1 82
2019-11-28 13:00:00 13.1 7 Sudoeste 18 Sudoeste 0 957.1 -0.2 67
2019-11-28 12:00:00 12.5 11 Sudoeste 21 Sudoeste 0 958.1 1 70
2019-11-28 11:00:00 10.8 6 Oeste 19 Sudoeste 0 958.1 1.3 84
2019-11-28 10:00:00 10.8 0 Calma 9 Oeste 0 957.3 1.8 85
2019-11-28 09:00:00 10.2 0 Calma 10 Oeste 0 957.1 1.3 88
2019-11-28 08:00:00 10.2 3 Sudoeste 13 Oeste 0 956.8 1.1 86
2019-11-28 07:00:00 9.9 0 Calma 14 Oeste 0 955.5 -0.1 88
2019-11-28 06:00:00 9.7 4 Oeste 13 Oeste 0 955.8 0.6 88
2019-11-28 05:00:00 9.7 0 Calma 12 Sudoeste 0 955.7 0.2 90
2019-11-28 04:00:00 9.7 3 Sudoeste 14 Oeste 0 955.6 -0.1 90
2019-11-28 03:00:00 9.6 5 Sudoeste 14 Sudoeste 0 955.2 -0.2 90
2019-11-28 02:00:00 9.8 4 Sudoeste 10 Sudoeste 0 955.5 0.3 89
2019-11-28 01:00:00 10 0 Calma 8 Norte 0 955.7 0.8 90
2019-11-28 00:00:00 9.1 3 Oeste 9 Oeste 0 955.4 0.7 87
2019-11-27 23:00:00 9.3 0 Calma 5 Sudoeste 0 955.2 0.8 87
2019-11-27 22:00:00 10 3 Oeste 10 Oeste 0 954.9 1 82
2019-11-27 21:00:00 10.1 0 Calma 8 Oeste 0 954.7 1.2 81
2019-11-27 20:00:00 10.5 0 Calma 8 Noroeste 0 954.4 1.3 75
2019-11-27 19:00:00 10.6 5 Sudoeste 16 Sudoeste 0 953.9 0.9 70
2019-11-27 18:00:00 12.1 8 Sudoeste 22 Sudoeste 0 953.5 0.7 61
2019-11-27 17:00:00 13.9 9 Sudoeste 36 Oeste 0 953.1 -0.2 54
2019-11-27 16:00:00 15.1 4 Oeste 22 Sudoeste 0 953 -0.7 58
2019-11-27 15:00:00 16.6 4 Oeste 22 Sudoeste 0 952.8 -1.5 52
2019-11-27 14:00:00 15.7 7 Oeste 33 Sudoeste 0 953.3 -1.2 55
2019-11-27 06:00:00 11 10 Sudoeste 24 Sudoeste 0.2 951.1 0.3 94
2019-11-27 05:00:00 11.3 9 Sudoeste 22 Sudoeste 0.3 950.8 0 95
2019-11-27 04:00:00 11.5 8 Sudoeste 27 Sudoeste 0 950.8 -0.5 90
2019-11-27 03:00:00 12.2 9 Sudoeste 32 Sudoeste 0 950.8 -0.6 82
2019-11-27 02:00:00 12.4 10 Oeste 27 Sudoeste 0 950.8 0.1 83
2019-11-27 01:00:00 12.6 12 Oeste 36 Oeste 0 951.3 0.3 86
2019-11-27 00:00:00 12.9 8 Oeste 30 Oeste 0 951.4 0.5 90
2019-11-26 23:00:00 13.3 7 Sudoeste 25 Sudoeste 0.2 950.7 -0.3 94
2019-11-26 22:00:00 12.7 6 Sudoeste 28 Sudoeste 0.5 951 0.1 94
2019-11-26 21:00:00 12.7 11 Sudoeste 22 Sudoeste 0.3 950.9 -0.2 94
2019-11-26 20:00:00 12.5 6 Sudoeste 20 Sudoeste 0.1 951 -0.2 94
2019-11-26 19:00:00 13 6 Sur 23 Sudoeste 1 950.9 -0.2 92
2019-11-26 18:00:00 14.2 12 Sur 29 Sudoeste 0 951.1 -0.8 77
2019-11-26 17:00:00 15 15 Sudoeste 37 Sudoeste 0 951.2 -1.8 77
2019-11-26 16:00:00 15 14 Sudoeste 24 Sudoeste 0 951.1 -2.7 77
2019-11-26 15:00:00 14.9 7 Sudoeste 22 Sudoeste 0 951.9 -2.7 86
2019-11-26 14:00:00 13.4 7 Sudoeste 19 Sudoeste 0 953 -1.9 91
2019-11-26 13:00:00 13.2 9 Sudoeste 21 Sudoeste 0 953.8 -1.1 86
2019-11-26 12:00:00 12.8 7 Sur 13 Sudoeste 0 954.6 -0.3 92
2019-11-26 11:00:00 12.4 5 Sudoeste 11 Sur 0 954.9 0.3 91
2019-11-26 10:00:00 11.6 0 Calma 15 Sur 0 954.9 0.4 93
2019-11-26 09:00:00 11.4 0 Calma 9 Sudoeste 0 954.9 0.3 94
2019-11-26 08:00:00 11.2 3 Sudoeste 10 Sudoeste 0 954.6 -0.2 94
2019-11-26 07:00:00 11.1 0 Calma 4 Sudoeste 0 954.5 -0.9 93
2019-11-26 06:00:00 10.4 0 Calma 4 Este 0 954.6 -0.5 95
2019-11-26 05:00:00 10.9 0 Calma 13 Sudoeste 0 954.8 -0.7 92
2019-11-26 04:00:00 11.7 2 Oeste 12 Oeste 0 955.4 -0.7 91
2019-11-26 03:00:00 11.8 4 Sudoeste 10 Sudoeste 0 955.1 -0.8 90
2019-11-26 02:00:00 10.9 0 Calma 9 Oeste 0 955.5 -0.6 93
2019-11-26 01:00:00 11.6 6 Oeste 10 Oeste 0 956.1 0 92
2019-11-26 00:00:00 12 4 Oeste 9 Sudoeste 0 955.9 0.1 90
2019-11-25 23:00:00 11.9 0 Calma 8 Oeste 0 956.1 0.7 89
2019-11-25 22:00:00 12.5 4 Sudoeste 13 Oeste 0 956.1 0.7 85
2019-11-25 21:00:00 12.7 5 Sudoeste 13 Oeste 0 955.8 0.6 86
2019-11-25 20:00:00 12.6 2 Oeste 10 Oeste 0 955.4 0.7 85
2019-11-25 19:00:00 12.9 3 Oeste 12 Sudoeste 0 955.4 1.3 83
2019-11-25 18:00:00 14.1 5 Sudoeste 14 Oeste 0 955.2 1.1 77
2019-11-25 17:00:00 14.9 3 Oeste 16 Oeste 0 954.7 0.4 74
2019-11-25 16:00:00 15.8 6 Sudoeste 20 Oeste 0 954.1 -0.4 69
2019-11-25 15:00:00 15 6 Oeste 22 Oeste 0 954.1 -0.4 71
2019-11-25 14:00:00 14.7 9 Oeste 24 Oeste 0.2 954.3 -0.7 92
2019-11-25 13:00:00 12.6 0 Calma 7 Nordeste 0 954.5 -0.3 96
2019-11-25 12:00:00 11.8 0 Calma 7 Noroeste 0.2 954.5 0.1 96
2019-11-25 11:00:00 11.2 2 Norte 6 Nordeste 0.2 955 0.9 96
2019-11-25 10:00:00 10.6 0 Calma 9 Sudeste 0.2 954.8 0.7 96
2019-11-25 09:00:00 9.9 0 Calma 12 Nordeste 0.6 954.4 0.6 96
2019-11-25 08:00:00 9.6 0 Calma 3 Nordeste 0.6 954.1 0.4 96
2019-11-25 07:00:00 9.6 0 Calma 7 Norte 0.8 954.1 -0.1 96
2019-11-25 06:00:00 9.3 0 Calma 10 Sur 0.5 953.8 -0.8 96
2019-11-25 05:00:00 9.2 0 Calma 14 Sur 0.2 953.7 -1.4 95
2019-11-25 04:00:00 9.2 3 Sudoeste 13 Sudoeste 0.1 954.2 -0.9 96
2019-11-25 03:00:00 9.2 5 Sudoeste 14 Sudoeste 0 954.6 -1.1 93
2019-11-25 02:00:00 9.8 5 Sudoeste 16 Sudoeste 0 955.1 -0.4 87
2019-11-25 01:00:00 10.6 0 Calma 10 Sur 0 955.1 -0.7 77
2019-11-25 00:00:00 10.3 5 Sudoeste 13 Sudoeste 0 955.7 -0.2 77
2019-11-24 23:00:00 10.3 0 Calma 5 Oeste 0 955.5 0 77
2019-11-24 22:00:00 10.2 0 Calma 9 Sudoeste 0 955.8 0.9 76
2019-11-24 21:00:00 10.2 4 Oeste 10 Oeste 0 955.9 1 75
2019-11-24 20:00:00 10.4 0 Calma 12 Sudoeste 0 955.5 0.6 75
2019-11-24 19:00:00 10.6 3 Sudoeste 12 Sudoeste 0 954.9 0.5 74
2019-11-24 18:00:00 10.4 4 Sudoeste 21 Sudoeste 0 954.9 0.6 68
2019-11-24 17:00:00 11 4 Oeste 20 Oeste 0 954.9 0.2 62
2019-11-24 16:00:00 11.4 6 Sudoeste 23 Sudoeste 0 954.4 -1 55
2019-11-24 15:00:00 13.1 6 Oeste 22 Sudoeste 0 954.3 -1.9 50
2019-11-24 14:00:00 12.3 8 Sudoeste 22 Oeste 0 954.7 -1.4 53
2019-11-24 13:00:00 11.1 4 Oeste 17 Oeste 0 955.4 -0.3 58
2019-11-24 12:00:00 9.3 2 Oeste 14 Sudoeste 0 956.2 0.7 68
2019-11-24 11:00:00 6.6 0 Calma 0 Calma 0 956.1 1.6 89
2019-11-24 10:00:00 4.9 0 Calma -- -- 0 955.7 2.3 94
2019-11-24 09:00:00 3.8 0 Calma 0 Calma 0 955.5 2.6 96
2019-11-24 08:00:00 3 0 Calma -- -- 0 954.5 1.7 96
2019-11-24 07:00:00 3.6 0 Calma 7 Oeste 0 953.4 1 96
2019-11-24 06:00:00 3.8 0 Calma 9 Oeste 0 952.9 0.2 95
2019-11-24 05:00:00 4.5 0 Calma 4 Oeste 0 952.8 0.2 94
2019-11-24 04:00:00 4.7 0 Calma 6 Sudoeste 0 952.4 0.2 93
2019-11-24 03:00:00 4.6 0 Calma 9 Noroeste 0 952.7 0.7 90
2019-11-24 02:00:00 6 0 Calma 10 Oeste 0 952.6 0.8 86
2019-11-24 01:00:00 6.2 0 Calma 9 Oeste 0 952.2 0.6 85
2019-11-24 00:00:00 5.9 0 Calma 13 Oeste 0 952 1.1 82
2019-11-23 23:00:00 6.5 3 Sudoeste 15 Oeste 0 951.8 1.7 77
2019-11-23 22:00:00 7.1 0 Calma 12 Oeste 0 951.6 2.3 73
2019-11-23 21:00:00 8.1 9 Sudoeste 14 Sudoeste 0 950.9 3 67
2019-11-23 20:00:00 7.9 0 Calma 11 Sudoeste 0 950.1 2.9 65
2019-11-23 19:00:00 8.7 4 Sudoeste 22 Noroeste 0 949.3 3.1 55
2019-11-23 18:00:00 10 5 Oeste 25 Oeste 0 947.9 2.4 48
2019-11-23 17:00:00 12.3 8 Oeste 31 Oeste 0 947.2 1.7 42
2019-11-23 16:00:00 13.9 3 Oeste 28 Oeste 0 946.2 1.2 40
2019-11-23 15:00:00 13.4 7 Oeste 35 Oeste 0 945.5 0.4 41
2019-11-23 14:00:00 13.9 11 Oeste 35 Oeste 0 945.5 0.9 42
2019-11-23 13:00:00 13 10 Oeste 41 Noroeste 0 945 1.8 46
2019-11-23 12:00:00 12.3 8 Oeste 44 Oeste 0 945.1 3.7 50
2019-11-23 11:00:00 11 9 Oeste 31 Oeste 0 944.6 4.5 60
2019-11-23 10:00:00 8.8 7 Oeste 33 Oeste 0 943.2 3.9 70
2019-11-23 09:00:00 8.4 10 Oeste 36 Oeste 0 941.4 2.7 75
2019-11-23 08:00:00 7.4 10 Oeste 36 Oeste 0 940.1 1.9 77
2019-11-23 07:00:00 7.7 5 Oeste 31 Oeste 0 939.3 1.5 77
2019-11-23 06:00:00 7.5 8 Oeste 36 Oeste 0 938.7 1.5 77
2019-11-23 05:00:00 8.2 8 Sudoeste 29 Sudoeste 0 938.2 1.9 77
2019-11-23 04:00:00 8.6 12 Oeste 29 Oeste 0.1 937.8 1.8 77
2019-11-23 03:00:00 9.1 6 Oeste 36 Oeste 0.1 937.2 1.2 84
2019-11-23 02:00:00 8.6 3 Oeste 35 Oeste 4.4 936.3 -0.4 92
2019-11-23 01:00:00 9.4 13 Oeste 44 Sudoeste 0.8 936 -0.4 90
2019-11-23 00:00:00 10.3 15 Sudoeste 43 Sudoeste 0 936 -0.4 81
2019-11-22 23:00:00 9.9 8 Oeste 37 Oeste 0.1 936.7 1.2 85
2019-11-22 22:00:00 10.2 6 Oeste 31 Sudoeste 0.1 936.4 1.6 88
2019-11-22 21:00:00 10.8 3 Oeste 32 Sudoeste 0.3 936.4 2.4 90
2019-11-22 20:00:00 11.8 5 Oeste 25 Sudoeste 0 935.5 2.1 77
2019-11-22 19:00:00 11.8 0 Calma 25 Oeste 0.2 934.8 1.2 88
2019-11-22 18:00:00 12.6 6 Oeste 30 Oeste 0 934 0 84
2019-11-22 17:00:00 13.4 3 Oeste 31 Sudoeste 0.5 933.4 -1.3 81
2019-11-22 16:00:00 12.6 4 Oeste 37 Sudoeste 10.1 933.6 -2.7 96
2019-11-22 15:00:00 12.4 21 Sudoeste 40 Sudoeste 5.7 934 -4 93
2019-11-22 14:00:00 12 18 Sudoeste 42 Sudoeste 1.8 934.7 -5.1 94
2019-11-22 13:00:00 12.3 9 Sudoeste 40 Sur 2 936.3 -3.9 93
2019-11-22 12:00:00 11.3 21 Sur 35 Sur 4.8 938 -3.2 94
2019-11-22 11:00:00 10.5 12 Sur 27 Sur 1 939.8 -2.6 93
2019-11-22 10:00:00 10.6 6 Sur 24 Sur 0.2 940.2 -2.2 91
2019-11-22 09:00:00 9.8 5 Sur 15 Sur 0.6 941.2 -1.9 93
2019-11-22 08:00:00 9.7 2 Sudoeste 16 Sudoeste 0.2 942.4 -1.5 93
2019-11-22 07:00:00 9.6 8 Sur 18 Sur 0.1 942.4 -2 92
2019-11-22 06:00:00 9.9 0 Calma 15 Sudoeste 0.1 943.1 -1.8 92
2019-11-22 05:00:00 10.1 3 Sudoeste 12 Sudoeste 0 943.9 -0.9 93
2019-11-22 04:00:00 9.8 0 Calma 8 Sudoeste 0 944.4 -1.5 94
2019-11-22 03:00:00 9.3 0 Calma -- -- 0 944.9 -1.2 96
2019-11-22 02:00:00 8.9 0 Calma 0 Calma 0 944.8 -1.5 96
2019-11-22 01:00:00 9 0 Calma 2 Este 0 945.9 -1.1 96
2019-11-22 00:00:00 8.8 0 Calma -- -- 0 946.1 -0.3 96
2019-11-21 23:00:00 8.6 0 Calma -- -- 0 946.3 -0.4 95
2019-11-21 22:00:00 9.2 0 Calma 0 Calma 0 947 0.8 94
2019-11-21 21:00:00 9 0 Calma 5 Sudeste 0 946.4 1 93
2019-11-21 20:00:00 9.5 0 Calma 4 Sudoeste 0 946.7 0.6 88
2019-11-21 19:00:00 9.5 0 Calma 5 Sur 0 946.2 0.1 90
2019-11-21 18:00:00 10.3 0 Calma 4 Oeste 0 945.4 -0.9 89
2019-11-21 17:00:00 10.6 0 Calma 8 Oeste 0 946.1 -0.6 87
2019-11-21 16:00:00 11 0 Calma 9 Oeste 0 946.1 -0.9 85
2019-11-21 15:00:00 11 0 Calma 14 Oeste 0 946.3 -1.4 90
2019-11-21 14:00:00 10.6 2 Oeste 13 Oeste 0 946.7 -1 92
2019-11-21 13:00:00 10.1 2 Oeste -- -- -- 947 -0.4 94
2019-11-21 12:00:00 9.6 0 Calma 9 Sudoeste 2.5 947.7 0.4 94
2019-11-21 11:00:00 9.2 5 Sudoeste 17 Sur 0.9 947.7 0.8 93
2019-11-21 10:00:00 9 4 Sudoeste 10 Sur 0 947.4 0.5 91
2019-11-21 09:00:00 8.4 2 Sur 16 Sudoeste 0 947.3 0.4 93
2019-11-21 08:00:00 8.4 0 Calma 6 Sur 0 946.9 -0.2 94
2019-11-21 07:00:00 8.1 0 Calma 6 Sur 0 946.9 -0.4 94
2019-11-21 06:00:00 8.1 0 Calma 4 Nordeste 0 946.9 -0.8 94
2019-11-21 05:00:00 8.1 0 Calma 3 Sudoeste 0.1 947.1 -0.7 94
2019-11-21 04:00:00 8.1 0 Calma 4 Este 0 947.3 -0.7 93
2019-11-21 03:00:00 8.1 0 Calma 8 Este 0.1 947.7 -0.3 93
2019-11-21 02:00:00 7.7 0 Calma 9 Este 0 947.8 -0.4 93
2019-11-21 01:00:00 7.9 0 Calma 6 Sudoeste 0 948 0.1 95
2019-11-21 00:00:00 7.9 0 Calma 12 Sudoeste 0.1 948 0.5 94
2019-11-20 23:00:00 7.8 0 Calma 10 Sudoeste 0.1 948.2 0.7 94
2019-11-20 22:00:00 7.6 0 Calma 7 Sudoeste 0 947.9 0.8 94
2019-11-20 21:00:00 7.1 0 Calma 12 Sudoeste 0 947.5 0.5 96
2019-11-20 20:00:00 7.1 0 Calma 12 Sur 0.1 947.5 0.2 95
2019-11-20 19:00:00 6.9 0 Calma 8 Sudoeste 0 947.1 -0.2 96
2019-11-20 18:00:00 6.6 4 Sudeste 13 Este 0.4 947 -0.4 96
2019-11-20 17:00:00 6.6 9 Este 17 Sudeste 0.5 947.3 -0.9 93
2019-11-20 16:00:00 6.8 4 Sur 14 Sur 0.6 947.3 -1.6 84
2019-11-20 15:00:00 7.9 0 Calma 16 Sudoeste 0 947.4 -2.5 73
2019-11-20 14:00:00 7.4 8 Sudoeste 21 Sudeste 0 948.2 -2.3 71
2019-11-20 13:00:00 7.4 10 Sur 26 Sudoeste 0.1 948.9 -1.4 74
2019-11-20 12:00:00 8.5 8 Sudoeste 21 Sudoeste 0 949.9 -0.5 68
2019-11-20 11:00:00 6.3 4 Sudeste 9 Sudeste 0 950.5 0.3 77
2019-11-20 10:00:00 4.9 0 Calma 9 Este 0 950.3 0.1 86
2019-11-20 09:00:00 3.9 0 Calma 3 Este 0 950.4 0 94
2019-11-20 08:00:00 3.1 0 Calma 5 Sudeste 0 950.2 -0.4 97
2019-11-20 07:00:00 3.2 0 Calma 9 Sudeste 0 950.2 -0.8 96
2019-11-20 06:00:00 3 0 Calma 5 Sudeste 0 950.4 -1.3 97
2019-11-20 05:00:00 3 0 Calma -- -- 0 950.6 -1.4 97
2019-11-20 04:00:00 3.3 0 Calma 5 Sudoeste 0 951 -1.5 97
2019-11-20 03:00:00 3.2 0 Calma -- -- 0 951.7 -1.2 96
2019-11-20 02:00:00 3.5 0 Calma -- -- 0 952 -1.4 96
2019-11-20 01:00:00 3.9 0 Calma -- -- 0 952.5 -1.4 94
2019-11-20 00:00:00 4.6 0 Calma -- -- 0 952.9 -0.6 92
2019-11-19 23:00:00 5.3 0 Calma -- -- 0 953.4 0 90
2019-11-19 22:00:00 5.8 0 Calma -- -- 0 953.9 0.5 85
2019-11-19 21:00:00 6.3 0 Calma 8 Sudoeste 0 953.5 0.3 77
2019-11-19 20:00:00 7.7 5 Sudoeste 8 Sudoeste 0 953.4 0.2 72
2019-11-19 19:00:00 8.3 0 Calma 6 Sudoeste 0 953.4 -0.5 72
2019-11-19 18:00:00 9.2 0 Calma 7 Oeste 0 953.2 -0.7 62
2019-11-19 17:00:00 9.9 0 Calma 12 Sudoeste 0 953.2 -1.6 54
2019-11-19 16:00:00 10.9 2 Oeste 14 Sudoeste 0 953.9 -1.5 48
2019-11-19 15:00:00 12.2 0 Calma 8 Sudoeste 0 953.9 -2.3 48
2019-11-19 14:00:00 10.5 0 Calma -- -- -- 954.8 -2.1 56
2019-11-19 13:00:00 8.6 0 Calma 7 Este 0 955.4 -1.9 67
2019-11-19 12:00:00 5.9 2 Este 7 Este 0 956.2 -0.3 77
2019-11-19 11:00:00 3 0 Calma 0 Calma 0 956.9 0.6 97
2019-11-19 10:00:00 0.9 0 Calma 0 Calma 0 957.3 1.4 97
2019-11-19 09:00:00 -0.2 0 Calma 4 Sudeste 0 956.5 0.8 97
2019-11-19 08:00:00 -0.5 0 Calma -- -- 0 956.3 0.7 97
2019-11-19 07:00:00 -0.2 0 Calma -- -- 0 955.9 0.2 97
2019-11-19 06:00:00 0 0 Calma -- -- 0 955.7 -0.2 97
2019-11-19 05:00:00 0.6 0 Calma -- -- 0 955.6 -0.5 96
2019-11-19 04:00:00 1.3 0 Calma -- -- 0 955.7 -0.3 96
2019-11-19 03:00:00 1.3 0 Calma 0 Calma 0 955.9 -0.3 96
2019-11-19 02:00:00 2.3 0 Calma -- -- 0 956.1 -0.3 96
2019-11-19 01:00:00 3.3 0 Calma 5 Sudoeste 0 956 0.3 93
2019-11-19 00:00:00 4.7 0 Calma 6 Noroeste 0 956.2 0.6 91
2019-11-18 23:00:00 5.3 0 Calma 9 Sudoeste 0 956.4 1.3 86
2019-11-18 22:00:00 6.6 0 Calma 4 Nordeste 0 955.7 1.3 81
2019-11-18 21:00:00 8.1 2 Sudoeste 8 Sudoeste 0 955.6 2 74
2019-11-18 20:00:00 8.1 6 Sudoeste 9 Sudoeste 0 955.1 1.7 74
2019-11-18 19:00:00 8.6 0 Calma 10 Oeste 0 954.4 1.4 66
2019-11-18 18:00:00 10 2 Sudoeste 12 Sudoeste 0 953.6 0.6 51
2019-11-18 17:00:00 13.1 4 Oeste 15 Sudoeste 0 953.4 0.4 40
2019-11-18 16:00:00 14.6 5 Oeste 19 Sudoeste 0 953 0 36
2019-11-18 15:00:00 14 2 Noroeste 17 Oeste 0 953 -0.2 38
2019-11-18 14:00:00 14.5 0 Calma 18 Norte 0 953 -0.2 39
2019-11-18 13:00:00 13.4 2 Noroeste 13 Oeste 0 953 0.3 41
2019-11-18 12:00:00 11.6 2 Norte 13 Nordeste 0 953.2 1.4 49
2019-11-18 11:00:00 9.7 4 Oeste 12 Sudoeste 0 953.2 2 64
2019-11-18 10:00:00 9 3 Oeste 11 Oeste 0 952.7 2.2 77
2019-11-18 09:00:00 5.2 3 Oeste 12 Oeste 0 951.8 1.8 97
2019-11-18 08:00:00 3.8 7 Oeste 11 Oeste 0 951.2 2.1 97
2019-11-18 07:00:00 4.5 6 Oeste 9 Oeste 0 950.5 1.8 96
2019-11-18 06:00:00 4.8 0 Calma 10 Sudoeste 0 950 1.5 96
2019-11-18 05:00:00 5.1 5 Sudoeste 10 Oeste 0.1 949.1 0.5 96
2019-11-18 04:00:00 5.3 4 Sudoeste 13 Sudoeste 0 948.7 0.4 96
2019-11-18 03:00:00 6.5 5 Sudoeste 11 Oeste 0 948.5 -0.4 96
2019-11-18 02:00:00 7.4 0 Calma 7 Sudoeste 0 948.6 0.1 96
2019-11-18 01:00:00 8.2 0 Calma 12 Sudoeste 0 948.3 -0.3 96
2019-11-18 00:00:00 9.5 2 Oeste 13 Oeste 0.3 948.9 0.3 96
2019-11-17 23:00:00 10.3 5 Oeste 17 Oeste 0.8 948.5 -0.8 96
2019-11-17 22:00:00 9.5 2 Sudoeste 17 Oeste 5.9 948.6 -1.6 96
2019-11-17 21:00:00 9.1 6 Norte 25 Norte 6.9 948.6 -2.2 97
2019-11-17 20:00:00 8.6 0 Calma 7 Norte 1.7 949.3 -2 97
2019-11-17 19:00:00 8 0 Calma 4 Nordeste 2.1 950.2 -2 97
2019-11-17 18:00:00 7.9 0 Calma 4 Norte 0 950.8 -1.6 97
2019-11-17 17:00:00 7.8 0 Calma 4 Norte 0 951.3 -2.1 97
2019-11-17 16:00:00 7.2 0 Calma 8 Nordeste 0 952.2 -1.8 96
2019-11-17 15:00:00 7.7 0 Calma 10 Sudoeste 0 952.4 -2.5 96
2019-11-17 14:00:00 6.5 8 Sur 15 Sur 0.1 953.4 -2 96
2019-11-17 13:00:00 6.2 3 Sur 14 Sudoeste 0.5 954 -1.3 96
2019-11-17 12:00:00 5.2 5 Sur 13 Sudoeste 0 954.9 -0.5 96
2019-11-17 11:00:00 4.9 0 Calma 10 Sudoeste 0 955.4 0.4 98
2019-11-17 10:00:00 2.8 0 Calma 10 Este 0 955.3 0.5 97
2019-11-17 09:00:00 2 0 Calma 0 Calma 0.2 955.4 0.5 97
2019-11-17 08:00:00 1.2 0 Calma 8 Norte 0.1 955 0 97
2019-11-17 07:00:00 -0.6 0 Calma -- -- 0 954.8 0.4 94
2019-11-17 06:00:00 1.1 0 Calma -- -- 0 954.9 0.1 93
2019-11-17 05:00:00 0.6 0 Calma 3 Noroeste 0 955 -0.2 93
2019-11-17 04:00:00 0 0 Calma 5 Norte 0 954.4 -0.7 92
2019-11-17 03:00:00 0.5 0 Calma -- -- 0 954.8 -0.8 90
2019-11-17 02:00:00 2 0 Calma 3 Sudoeste 0 955.2 -0.2 85
2019-11-17 01:00:00 2 0 Calma 7 Sudoeste 0 955.1 -0.3 83
2019-11-17 00:00:00 3.9 0 Calma 6 Sudoeste 0 955.6 0.4 71
2019-11-16 23:00:00 3.5 0 Calma 6 Sudoeste 0 955.4 0.5 72
2019-11-16 22:00:00 4.1 0 Calma 9 Sudoeste 0 955.4 1 67
2019-11-16 21:00:00 5.4 0 Calma 8 Oeste 0 955.2 0.8 61
2019-11-16 20:00:00 5.8 4 Oeste 7 Oeste 0 954.9 0.6 58
2019-11-16 19:00:00 6.5 0 Calma 8 Sudoeste 0 954.4 1 52
2019-11-16 18:00:00 8.5 5 Sudoeste 18 Oeste 0 954.4 1.3 43
2019-11-16 17:00:00 10.7 5 Oeste 19 Sudoeste 0 954.3 1.1 38
2019-11-16 16:00:00 12 6 Oeste 21 Oeste 0 953.4 -0.2 36
2019-11-16 15:00:00 12.3 10 Sudoeste 33 Sudoeste 0 953.1 -1.1 35
2019-11-16 14:00:00 12.4 3 Oeste 22 Oeste 0 953.2 -0.4 36
2019-11-16 13:00:00 11 8 Sur 16 Sur 0 953.6 0.3 43
2019-11-16 12:00:00 9.8 0 Calma 9 Este 0 954.2 1.4 50
2019-11-16 11:00:00 5.3 4 Sudeste 10 Este 0 953.6 1.9 69
2019-11-16 10:00:00 2.6 0 Calma 7 Nordeste 0 953.3 2.2 77
2019-11-16 09:00:00 0.2 0 Calma -- -- 0 952.8 3 93
2019-11-16 08:00:00 -2.7 0 Calma 5 Noroeste 0 951.7 2.3 98
2019-11-16 07:00:00 -1.3 0 Calma 6 Sudoeste 0 951.1 2.4 97
2019-11-16 06:00:00 -2.1 2 Noroeste 7 Norte 0 949.8 1.5 96
2019-11-16 05:00:00 -0.9 0 Calma 4 Nordeste 0 949.4 1.8 96
2019-11-16 04:00:00 -0.2 0 Calma 5 Sudoeste 0 948.7 1.6 94
2019-11-16 03:00:00 0.4 3 Noroeste 6 Noroeste 0 948.3 1 93
2019-11-16 02:00:00 0.5 0 Calma 9 Sudoeste 0 947.6 0.6 84
2019-11-16 01:00:00 1.7 0 Calma 6 Sudoeste 0 947.1 0.5 86
2019-11-16 00:00:00 3.4 0 Calma 9 Oeste 0 947.3 1.3 70